NCAR-RAP Real-Time Weather Data

Output produced by METARs form (28 June 2017  12:07 UTC)
found at http://weather.rap.ucar.edu/surface/
 
Conditions at: KLAL observed 28 June 2017  11:45 UTC
Temperature: 23.0°C (73°F)
Dewpoint: 23.0°C (73°F) [RH = 100%]
Pressure (altimeter): 30.05 inches Hg (1017.7 mb)
Winds: calm
Visibility: 7 miles (11 km)
Ceiling: at least 12,000 feet AGL
Clouds: clear skies
Present Weather: no significant weather observed at this time
KLAL 281145Z 00000KT 7SM SKC 23/23 A3005

Conditions at: KLAL observed 28 June 2017  10:45 UTC
Temperature: 22.0°C (72°F)
Dewpoint: 22.0°C (72°F) [RH = 100%]
Pressure (altimeter): 30.03 inches Hg (1017.0 mb)
Winds: calm
Visibility: 5 miles (8 km)
Ceiling: at least 12,000 feet AGL
Clouds: clear skies
Present Weather: BR  (mist)
KLAL 281045Z 00000KT 5SM BR SKC 22/22 A3003

Conditions at: KLAL observed 28 June 2017  09:50 UTC
Temperature: 22.0°C (72°F)
Dewpoint: 22.0°C (72°F) [RH = 100%]
Pressure (altimeter): 30.02 inches Hg (1016.7 mb)
Winds: from the NW (320 degrees) at 5 MPH (4 knots; 2.1 m/s)
Visibility: 10 or more miles (16+ km)
Ceiling: at least 12,000 feet AGL
Clouds: clear skies
Present Weather: no significant weather observed at this time
KLAL 280950Z 32004KT 10SM SKC 22/22 A3002

Conditions at: KLAL observed 28 June 2017  09:35 UTC
Temperature: 22.0°C (72°F)
Dewpoint: 22.0°C (72°F) [RH = 100%]
Pressure (altimeter): 30.01 inches Hg (1016.3 mb)
Winds: calm
Visibility: 7 miles (11 km)
Ceiling: at least 12,000 feet AGL
Clouds: sky clear below 12,000 feet AGL
Present Weather: automated observation with no human augmentation;
there may or may not be significant weather present at this time
KLAL 280935Z AUTO 00000KT 7SM CLR 22/22 A3001 RMK AO2 LTG DSNT NE

Conditions at: KLAL observed 28 June 2017  09:15 UTC
Temperature: 22.0°C (72°F)
Dewpoint: 22.0°C (72°F) [RH = 100%]
Pressure (altimeter): 30.00 inches Hg (1016.0 mb)
Winds: from the WNW (300 degrees) at 3 MPH (3 knots; 1.6 m/s)
Visibility: 10 or more miles (16+ km)
Ceiling: at least 12,000 feet AGL
Clouds: sky clear below 12,000 feet AGL
Present Weather: automated observation with no human augmentation;
there may or may not be significant weather present at this time
KLAL 280915Z AUTO 30003KT 10SM CLR 22/22 A3000 RMK AO2

Conditions at: KLAL observed 28 June 2017  08:55 UTC
Temperature: 22.0°C (72°F)
Dewpoint: 22.0°C (72°F) [RH = 100%]
Pressure (altimeter): 30.00 inches Hg (1016.0 mb)
Winds: calm
Visibility: 10 or more miles (16+ km)
Ceiling: at least 12,000 feet AGL
Clouds: sky clear below 12,000 feet AGL
Present Weather: automated observation with no human augmentation;
there may or may not be significant weather present at this time
KLAL 280855Z AUTO 00000KT 10SM CLR 22/22 A3000 RMK AO2

Conditions at: KLAL observed 28 June 2017  08:35 UTC
Temperature: 22.0°C (72°F)
Dewpoint: 22.0°C (72°F) [RH = 100%]
Pressure (altimeter): 30.00 inches Hg (1016.0 mb)
Winds: calm
Visibility: 10 or more miles (16+ km)
Ceiling: at least 12,000 feet AGL
Clouds: sky clear below 12,000 feet AGL
Present Weather: automated observation with no human augmentation;
there may or may not be significant weather present at this time
KLAL 280835Z AUTO 00000KT 10SM CLR 22/22 A3000 RMK AO2 LTG DSNT NE

Conditions at: KLAL observed 28 June 2017  08:15 UTC
Temperature: 22.0°C (72°F)
Dewpoint: 22.0°C (72°F) [RH = 100%]
Pressure (altimeter): 30.00 inches Hg (1016.0 mb)
Winds: calm
Visibility: 10 or more miles (16+ km)
Ceiling: at least 12,000 feet AGL
Clouds: sky clear below 12,000 feet AGL
Present Weather: automated observation with no human augmentation;
there may or may not be significant weather present at this time
KLAL 280815Z AUTO 00000KT 10SM CLR 22/22 A3000 RMK AO2 LTG DSNT NE

Conditions at: KLAL observed 28 June 2017  07:55 UTC
Temperature: 22.0°C (72°F)
Dewpoint: 22.0°C (72°F) [RH = 100%]
Pressure (altimeter): 30.00 inches Hg (1016.0 mb)
Winds: calm
Visibility: 10 or more miles (16+ km)
Ceiling: at least 12,000 feet AGL
Clouds: sky clear below 12,000 feet AGL
Present Weather: automated observation with no human augmentation;
there may or may not be significant weather present at this time
KLAL 280755Z AUTO 00000KT 10SM CLR 22/22 A3000 RMK AO2 LTG DSNT NE

Conditions at: KLAL observed 28 June 2017  07:35 UTC
Temperature: 22.0°C (72°F)
Dewpoint: 22.0°C (72°F) [RH = 100%]
Pressure (altimeter): 30.00 inches Hg (1016.0 mb)
Winds: calm
Visibility: 10 or more miles (16+ km)
Ceiling: at least 12,000 feet AGL
Clouds: sky clear below 12,000 feet AGL
Present Weather: automated observation with no human augmentation;
there may or may not be significant weather present at this time
KLAL 280735Z AUTO 00000KT 10SM CLR 22/22 A3000 RMK AO2

Conditions at: KLAL observed 28 June 2017  07:15 UTC
Temperature: 22.0°C (72°F)
Dewpoint: 22.0°C (72°F) [RH = 100%]
Pressure (altimeter): 30.00 inches Hg (1016.0 mb)
Winds: calm
Visibility: 10 or more miles (16+ km)
Ceiling: at least 12,000 feet AGL
Clouds: sky clear below 12,000 feet AGL
Present Weather: automated observation with no human augmentation;
there may or may not be significant weather present at this time
KLAL 280715Z AUTO 00000KT 10SM CLR 22/22 A3000 RMK AO2

Conditions at: KLAL observed 28 June 2017  06:55 UTC
Temperature: 22.0°C (72°F)
Dewpoint: 22.0°C (72°F) [RH = 100%]
Pressure (altimeter): 30.00 inches Hg (1016.0 mb)
Winds: calm
Visibility: 10 or more miles (16+ km)
Ceiling: at least 12,000 feet AGL
Clouds: sky clear below 12,000 feet AGL
Present Weather: automated observation with no human augmentation;
there may or may not be significant weather present at this time
KLAL 280655Z AUTO 00000KT 10SM CLR 22/22 A3000 RMK AO2

Conditions at: KLAL observed 28 June 2017  06:35 UTC
Temperature: 22.0°C (72°F)
Dewpoint: 22.0°C (72°F) [RH = 100%]
Pressure (altimeter): 30.01 inches Hg (1016.3 mb)
Winds: from the SSE (150 degrees) at 3 MPH (3 knots; 1.6 m/s)
Visibility: 10 or more miles (16+ km)
Ceiling: at least 12,000 feet AGL
Clouds: sky clear below 12,000 feet AGL
Present Weather: automated observation with no human augmentation;
there may or may not be significant weather present at this time
KLAL 280635Z AUTO 15003KT 10SM CLR 22/22 A3001 RMK AO2

Conditions at: KLAL observed 28 June 2017  06:15 UTC
Temperature: 22.0°C (72°F)
Dewpoint: 22.0°C (72°F) [RH = 100%]
Pressure (altimeter): 30.02 inches Hg (1016.7 mb)
Winds: calm
Visibility: 10 or more miles (16+ km)
Ceiling: at least 12,000 feet AGL
Clouds: sky clear below 12,000 feet AGL
Present Weather: automated observation with no human augmentation;
there may or may not be significant weather present at this time
KLAL 280615Z AUTO 00000KT 10SM CLR 22/22 A3002 RMK AO2 LTG DSNT E

Conditions at: KLAL observed 28 June 2017  05:55 UTC
Temperature: 22.0°C (72°F)
Dewpoint: 22.0°C (72°F) [RH = 100%]
Pressure (altimeter): 30.03 inches Hg (1017.0 mb)
Winds: from the SE (140 degrees) at 3 MPH (3 knots; 1.6 m/s)
Visibility: 10 or more miles (16+ km)
Ceiling: at least 12,000 feet AGL
Clouds: sky clear below 12,000 feet AGL
Present Weather: automated observation with no human augmentation;
there may or may not be significant weather present at this time
KLAL 280555Z AUTO 14003KT 10SM CLR 22/22 A3003 RMK AO2

Conditions at: KLAL observed 28 June 2017  05:35 UTC
Temperature: 22.0°C (72°F)
Dewpoint: 22.0°C (72°F) [RH = 100%]
Pressure (altimeter): 30.03 inches Hg (1017.0 mb)
Winds: calm
Visibility: 10 or more miles (16+ km)
Ceiling: at least 12,000 feet AGL
Clouds: sky clear below 12,000 feet AGL
Present Weather: automated observation with no human augmentation;
there may or may not be significant weather present at this time
KLAL 280535Z AUTO 00000KT 10SM CLR 22/22 A3003 RMK AO2

Conditions at: KLAL observed 28 June 2017  05:15 UTC
Temperature: 22.0°C (72°F)
Dewpoint: 22.0°C (72°F) [RH = 100%]
Pressure (altimeter): 30.03 inches Hg (1017.0 mb)
Winds: calm
Visibility: 10 or more miles (16+ km)
Ceiling: at least 12,000 feet AGL
Clouds: sky clear below 12,000 feet AGL
Present Weather: automated observation with no human augmentation;
there may or may not be significant weather present at this time
KLAL 280515Z AUTO 00000KT 10SM CLR 22/22 A3003 RMK AO2

Conditions at: KLAL observed 28 June 2017  04:55 UTC
Temperature: 22.0°C (72°F)
Dewpoint: 22.0°C (72°F) [RH = 100%]
Pressure (altimeter): 30.03 inches Hg (1017.0 mb)
Winds: calm
Visibility: 10 or more miles (16+ km)
Ceiling: at least 12,000 feet AGL
Clouds: sky clear below 12,000 feet AGL
Present Weather: automated observation with no human augmentation;
there may or may not be significant weather present at this time
KLAL 280455Z AUTO 00000KT 10SM CLR 22/22 A3003 RMK AO2

Conditions at: KLAL observed 28 June 2017  04:35 UTC
Temperature: 22.0°C (72°F)
Dewpoint: 22.0°C (72°F) [RH = 100%]
Pressure (altimeter): 30.04 inches Hg (1017.4 mb)
Winds: calm
Visibility: 10 or more miles (16+ km)
Ceiling: at least 12,000 feet AGL
Clouds: sky clear below 12,000 feet AGL
Present Weather: automated observation with no human augmentation;
there may or may not be significant weather present at this time
KLAL 280435Z AUTO 00000KT 10SM CLR 22/22 A3004 RMK AO2

Conditions at: KLAL observed 28 June 2017  04:15 UTC
Temperature: 22.0°C (72°F)
Dewpoint: 22.0°C (72°F) [RH = 100%]
Pressure (altimeter): 30.04 inches Hg (1017.4 mb)
Winds: calm
Visibility: 10 or more miles (16+ km)
Ceiling: at least 12,000 feet AGL
Clouds: sky clear below 12,000 feet AGL
Present Weather: automated observation with no human augmentation;
there may or may not be significant weather present at this time
KLAL 280415Z AUTO 00000KT 10SM CLR 22/22 A3004 RMK AO2

Conditions at: KLAL observed 28 June 2017  03:55 UTC
Temperature: 22.0°C (72°F)
Dewpoint: 22.0°C (72°F) [RH = 100%]
Pressure (altimeter): 30.05 inches Hg (1017.7 mb)
Winds: calm
Visibility: 10 or more miles (16+ km)
Ceiling: at least 12,000 feet AGL
Clouds: sky clear below 12,000 feet AGL
Present Weather: automated observation with no human augmentation;
there may or may not be significant weather present at this time
KLAL 280355Z AUTO 00000KT 10SM CLR 22/22 A3005 RMK AO2

Conditions at: KLAL observed 28 June 2017  03:35 UTC
Temperature: 22.0°C (72°F)
Dewpoint: 22.0°C (72°F) [RH = 100%]
Pressure (altimeter): 30.05 inches Hg (1017.7 mb)
Winds: calm
Visibility: 10 or more miles (16+ km)
Ceiling: at least 12,000 feet AGL
Clouds: sky clear below 12,000 feet AGL
Present Weather: automated observation with no human augmentation;
there may or may not be significant weather present at this time
KLAL 280335Z AUTO 00000KT 10SM CLR 22/22 A3005 RMK AO2

Conditions at: KLAL observed 28 June 2017  03:15 UTC
Temperature: 22.0°C (72°F)
Dewpoint: 22.0°C (72°F) [RH = 100%]
Pressure (altimeter): 30.04 inches Hg (1017.4 mb)
Winds: from the SE (130 degrees) at 3 MPH (3 knots; 1.6 m/s)
Visibility: 10 or more miles (16+ km)
Ceiling: at least 12,000 feet AGL
Clouds: sky clear below 12,000 feet AGL
Present Weather: automated observation with no human augmentation;
there may or may not be significant weather present at this time
KLAL 280315Z AUTO 13003KT 10SM CLR 22/22 A3004 RMK AO2

Conditions at: KLAL observed 28 June 2017  02:55 UTC
Temperature: 22.0°C (72°F)
Dewpoint: 22.0°C (72°F) [RH = 100%]
Pressure (altimeter): 30.04 inches Hg (1017.4 mb)
Winds: from the NE (50 degrees) at 5 MPH (4 knots; 2.1 m/s)
Visibility: 10 or more miles (16+ km)
Ceiling: at least 12,000 feet AGL
Clouds: sky clear below 12,000 feet AGL
Present Weather: automated observation with no human augmentation;
there may or may not be significant weather present at this time
KLAL 280255Z AUTO 05004KT 10SM CLR 22/22 A3004 RMK AO2 LTG DSNT SE

Conditions at: KLAL observed 28 June 2017  02:35 UTC
Temperature: 22.0°C (72°F)
Dewpoint: 22.0°C (72°F) [RH = 100%]
Pressure (altimeter): 30.04 inches Hg (1017.4 mb)
Winds: calm
Visibility: 10 or more miles (16+ km)
Ceiling: at least 12,000 feet AGL
Clouds: sky clear below 12,000 feet AGL
Present Weather: automated observation with no human augmentation;
there may or may not be significant weather present at this time
KLAL 280235Z AUTO 00000KT 10SM CLR 22/22 A3004 RMK AO2 LTG DSNT E

Conditions at: KLAL observed 28 June 2017  02:15 UTC
Temperature: 22.0°C (72°F)
Dewpoint: 22.0°C (72°F) [RH = 100%]
Pressure (altimeter): 30.04 inches Hg (1017.4 mb)
Winds: from the ESE (120 degrees) at 6 MPH (5 knots; 2.6 m/s)
Visibility: 10 or more miles (16+ km)
Ceiling: at least 12,000 feet AGL
Clouds: scattered clouds at 600 feet AGL
Present Weather: automated observation with no human augmentation;
there may or may not be significant weather present at this time
KLAL 280215Z AUTO 12005KT 10SM SCT006 22/22 A3004 RMK AO2 LTG DSNT E AND S

Conditions at: KLAL observed 28 June 2017  01:50 UTC
Temperature: 23.0°C (73°F)
Dewpoint: 23.0°C (73°F) [RH = 100%]
Pressure (altimeter): 30.03 inches Hg (1017.0 mb)
Winds: from the ESE (120 degrees) at 9 MPH (8 knots; 4.2 m/s)
Visibility: 10 or more miles (16+ km)
Ceiling: 3200 feet AGL
Clouds: scattered clouds at 900 feet AGL
broken clouds at 3200 feet AGL
Present Weather: VCSH  (showers in vicinity)
KLAL 280150Z 12008KT 10SM VCSH SCT009 BKN032 23/23 A3003

Conditions at: KLAL observed 28 June 2017  00:50 UTC
Temperature: 24.0°C (75°F)
Dewpoint: 23.0°C (73°F) [RH = 94%]
Pressure (altimeter): 30.02 inches Hg (1016.7 mb)
Winds: from the E (100 degrees) at 8 MPH (7 knots; 3.6 m/s)
Visibility: 10 or more miles (16+ km)
Ceiling: 2300 feet AGL
Clouds: scattered clouds at 900 feet AGL
broken clouds at 2300 feet AGL
Present Weather: VCSH  (showers in vicinity)
KLAL 280050Z 10007KT 10SM VCSH SCT009 BKN023 24/23 A3002

Conditions at: KLAL observed 27 June 2017  23:45 UTC
Temperature: 26.0°C (79°F)
Dewpoint: 25.0°C (77°F) [RH = 94%]
Pressure (altimeter): 30.00 inches Hg (1016.0 mb)
Winds: from the E (100 degrees) at 8 MPH (7 knots; 3.6 m/s)
Visibility: 10 or more miles (16+ km)
Ceiling: 2500 feet AGL
Clouds: broken clouds at 2500 feet AGL
Present Weather: VCSH  (showers in vicinity)
KLAL 272345Z 10007KT 10SM VCSH BKN025 26/25 A3000

Conditions at: KLAL observed 27 June 2017  22:45 UTC
Temperature: 27.0°C (81°F)
Dewpoint: 24.0°C (75°F) [RH = 84%]
Pressure (altimeter): 29.97 inches Hg (1015.0 mb)
Winds: from the W (280 degrees) at 3 MPH (3 knots; 1.6 m/s)
Visibility: 10 or more miles (16+ km)
Ceiling: 4000 feet AGL
Clouds: broken clouds at 4000 feet AGL
Present Weather: VCSH  (showers in vicinity)
KLAL 272245Z 28003KT 10SM VCSH BKN040 27/24 A2997

Conditions at: KLAL observed 27 June 2017  21:45 UTC
Temperature: 26.0°C (79°F)
Dewpoint: 24.0°C (75°F) [RH = 89%]
Pressure (altimeter): 29.97 inches Hg (1015.0 mb)
Winds: from the W (280 degrees) at 3 MPH (3 knots; 1.6 m/s)
Visibility: 7 miles (11 km)
Ceiling: 4000 feet AGL
Clouds: broken clouds at 4000 feet AGL
Present Weather: RA  (rain)
KLAL 272145Z 28003KT 7SM RA BKN040 26/24 A2997 RMK TSB25E44

Conditions at: KLAL observed 27 June 2017  21:25 UTC
Temperature: 27.0°C (81°F)
Dewpoint: 25.0°C (77°F) [RH = 89%]
Pressure (altimeter): 29.98 inches Hg (1015.3 mb)
Winds: from the W (280 degrees) at 10 MPH (9 knots; 4.7 m/s)
Visibility: 4 miles (6 km)
Ceiling: 4000 feet AGL
Clouds: broken clouds at 4000 feet AGL
Present Weather: TSRA  (rain associated with thunderstorm(s))
KLAL 272125Z 28009KT 4SM TSRA BKN040 27/25 A2998 RMK TSB25

Conditions at: KLAL observed 27 June 2017  20:50 UTC
Temperature: 28.0°C (82°F)
Dewpoint: 25.0°C (77°F) [RH = 84%]
Pressure (altimeter): 29.95 inches Hg (1014.3 mb)
Winds: from the SW (220 degrees) at 7 MPH (6 knots; 3.1 m/s)
Visibility: 10 or more miles (16+ km)
Ceiling: 6000 feet AGL
Clouds: broken clouds at 6000 feet AGL
Present Weather: VCSH  (showers in vicinity)
KLAL 272050Z 22006KT 10SM VCSH BKN060 28/25 A2995

Conditions at: KLAL observed 27 June 2017  19:55 UTC
Temperature: 28.0°C (82°F)
Dewpoint: 24.0°C (75°F) [RH = 79%]
Pressure (altimeter): 29.98 inches Hg (1015.3 mb)
Winds: from the WSW (240 degrees) at 6 MPH (5 knots; 2.6 m/s)
Visibility: 5 miles (8 km)
Ceiling: 9000 feet AGL
Clouds: scattered clouds at 5000 feet AGL
broken clouds at 9000 feet AGL
Present Weather: RA  (rain)
KLAL 271955Z 24005KT 5SM RA SCT050 BKN090 28/24 A2998

Conditions at: KLAL observed 27 June 2017  18:55 UTC
Temperature: 28.0°C (82°F)
Dewpoint: 24.0°C (75°F) [RH = 79%]
Pressure (altimeter): 29.99 inches Hg (1015.7 mb)
Winds: from the ESE (120 degrees) at 9 MPH (8 knots; 4.2 m/s)
Visibility: 10 or more miles (16+ km)
Ceiling: 3900 feet AGL
Clouds: broken clouds at 3900 feet AGL
Present Weather: VCSH  (showers in vicinity)
KLAL 271855Z 12008KT 10SM VCSH BKN039 28/24 A2999

Conditions at: KLAL observed 27 June 2017  17:51 UTC
Temperature: 29.0°C (84°F)
Dewpoint: 24.0°C (75°F) [RH = 74%]
Pressure (altimeter): 30.00 inches Hg (1016.0 mb)
Winds: from the ESE (120 degrees) at 8 MPH (7 knots; 3.6 m/s)
Visibility: 10 or more miles (16+ km)
Ceiling: 4000 feet AGL
Clouds: broken clouds at 4000 feet AGL
Present Weather: no significant weather observed at this time
KLAL 271751Z 12007KT 10SM BKN040 29/24 A3000 RMK LTGCG DSNT SE

Conditions at: KLAL observed 27 June 2017  16:45 UTC
Temperature: 31.0°C (88°F)
Dewpoint: 24.0°C (75°F) [RH = 66%]
Pressure (altimeter): 30.01 inches Hg (1016.3 mb)
Winds: from the N (360 degrees) at 5 MPH (4 knots; 2.1 m/s)
Visibility: 10 or more miles (16+ km)
Ceiling: at least 12,000 feet AGL
Clouds: scattered clouds at 3900 feet AGL
Present Weather: no significant weather observed at this time
KLAL 271645Z 36004KT 10SM SCT039 31/24 A3001

Conditions at: KLAL observed 27 June 2017  15:45 UTC
Temperature: 31.0°C (88°F)
Dewpoint: 22.0°C (72°F) [RH = 59%]
Pressure (altimeter): 30.02 inches Hg (1016.7 mb)
Winds: from the WSW (250 degrees) at 7 MPH (6 knots; 3.1 m/s)
Visibility: 10 or more miles (16+ km)
Ceiling: 3500 feet AGL
Clouds: broken clouds at 3500 feet AGL
Present Weather: no significant weather observed at this time
KLAL 271545Z 25006KT 10SM BKN035 31/22 A3002

Conditions at: KLAL observed 27 June 2017  14:45 UTC
Temperature: 29.0°C (84°F)
Dewpoint: 23.0°C (73°F) [RH = 70%]
Pressure (altimeter): 30.03 inches Hg (1017.0 mb)
Winds: from the WNW (300 degrees) at 9 MPH (8 knots; 4.2 m/s)
Visibility: 10 or more miles (16+ km)
Ceiling: 10000 feet AGL
Clouds: broken clouds at 10000 feet AGL
Present Weather: no significant weather observed at this time
KLAL 271445Z 30008KT 10SM BKN100 29/23 A3003

Conditions at: KLAL observed 27 June 2017  13:45 UTC
Temperature: 29.0°C (84°F)
Dewpoint: 24.0°C (75°F) [RH = 74%]
Pressure (altimeter): 30.03 inches Hg (1017.0 mb)
Winds: from the NW (320 degrees) at 9 MPH (8 knots; 4.2 m/s)
Visibility: 10 or more miles (16+ km)
Ceiling: 10000 feet AGL
Clouds: broken clouds at 10000 feet AGL
Present Weather: no significant weather observed at this time
KLAL 271345Z 32008KT 10SM BKN100 29/24 A3003

Conditions at: KLAL observed 27 June 2017  12:45 UTC
Temperature: 26.0°C (79°F)
Dewpoint: 24.0°C (75°F) [RH = 89%]
Pressure (altimeter): 30.03 inches Hg (1017.0 mb)
Winds: calm
Visibility: 10 or more miles (16+ km)
Ceiling: at least 12,000 feet AGL
Clouds: scattered clouds at 8000 feet AGL
Present Weather: no significant weather observed at this time
KLAL 271245Z 00000KT 10SM SCT080 26/24 A3003